Time;durP1;ratioP1;P1;durP2;ratioP2;P2;SDS_P1;SDS_P2;PMS_P1;PMS_P2;Temp;Humidity;BMP_temperature;BMP_pressure;BME280_temperature;BME280_humidity;BME280_pressure;Samples;Min_cycle;Max_cycle;Signal;HPM_P1;HPM_P2
2023/05/18 00:01:19;;;;;;;4.32;1.55;;;6.80;43.90;;;;;;5114905;28;20502;-29
2023/05/18 00:03:46;;;;;;;7.07;1.83;;;6.80;90.90;;;;;;5114597;28;20048;-29
2023/05/18 00:06:11;;;;;;;9.77;2.38;;;6.80;99.90;;;;;;5096793;28;20047;-29
2023/05/18 00:08:37;;;;;;;9.77;2.15;;;6.90;86.30;;;;;;5113399;28;20364;-29
2023/05/18 00:11:04;;;;;;;8.25;2.30;;;6.90;93.10;;;;;;5114444;28;20043;-28
2023/05/18 00:13:30;;;;;;;5.53;1.75;;;6.80;99.90;;;;;;5113435;28;20086;-28
2023/05/18 00:15:55;;;;;;;8.75;1.42;;;6.80;99.90;;;;;;5114938;28;20144;-29
2023/05/18 00:18:23;;;;;;;8.98;2.67;;;6.90;99.90;;;;;;5114390;28;20156;-29
2023/05/18 00:20:49;;;;;;;8.73;2.53;;;6.80;99.90;;;;;;5114859;28;20391;-29
2023/05/18 00:23:15;;;;;;;9.25;2.72;;;6.90;99.90;;;;;;5115088;28;20079;-29
2023/05/18 00:25:41;;;;;;;9.63;1.88;;;6.90;99.90;;;;;;5114163;28;20402;-30
2023/05/18 00:28:07;;;;;;;8.00;1.73;;;6.90;99.90;;;;;;5114120;28;20044;-29
2023/05/18 00:30:33;;;;;;;9.02;1.83;;;6.90;99.90;;;;;;5114156;28;20093;-29
2023/05/18 00:32:59;;;;;;;9.07;2.10;;;6.90;99.90;;;;;;5112948;28;20051;-29
2023/05/18 00:35:25;;;;;;;8.20;2.20;;;6.90;1.00;;;;;;5114115;28;20044;-29
2023/05/18 00:37:50;;;;;;;7.80;1.98;;;6.80;1.00;;;;;;5113866;28;20490;-29
2023/05/18 00:40:16;;;;;;;6.35;2.03;;;6.80;1.00;;;;;;5113274;28;20063;-29
2023/05/18 00:42:42;;;;;;;7.25;2.45;;;6.80;1.00;;;;;;5112884;28;20079;-29
2023/05/18 00:45:08;;;;;;;11.48;2.45;;;6.80;1.00;;;;;;5114046;28;20059;-28
2023/05/18 00:47:34;;;;;;;10.07;2.50;;;6.80;53.00;;;;;;5114147;28;20490;-29
2023/05/18 00:50:00;;;;;;;7.00;2.25;;;6.80;1.00;;;;;;5114242;28;20501;-28
2023/05/18 00:52:27;;;;;;;8.75;2.33;;;6.80;99.90;;;;;;5114003;28;20129;-30
2023/05/18 00:54:53;;;;;;;8.35;2.10;;;6.70;9.70;;;;;;5113933;28;20063;-29
2023/05/18 00:57:19;;;;;;;5.70;2.00;;;6.70;57.70;;;;;;5113901;28;20475;-29
2023/05/18 00:59:46;;;;;;;8.07;2.03;;;6.70;90.80;;;;;;5116588;28;20049;-28
2023/05/18 01:02:13;;;;;;;11.13;2.10;;;6.70;84.70;;;;;;5118110;28;20134;-29
2023/05/18 01:04:40;;;;;;;10.68;2.35;;;6.70;99.90;;;;;;5118012;28;20044;-28
2023/05/18 01:07:06;;;;;;;9.73;2.78;;;6.70;99.90;;;;;;5117621;28;20491;-29
2023/05/18 01:09:33;;;;;;;7.28;2.88;;;6.70;99.90;;;;;;5117894;28;20084;-29
2023/05/18 01:12:04;;;;;;;5.85;2.00;;;6.70;99.90;;;;;;5117865;28;20090;-30
2023/05/18 01:14:38;;;;;;;12.57;2.40;;;6.60;99.90;;;;;;5116658;28;20043;-30
2023/05/18 01:17:03;;;;;;;;;;;6.60;99.90;;;;;;5134696;27;20048;-29
2023/05/18 01:19:50;;;;;;;8.48;2.47;;;6.60;1.00;;;;;;5116768;28;19930;-29
2023/05/18 01:22:42;;;;;;;8.77;2.35;;;6.60;99.90;;;;;;5117448;28;20507;-30
2023/05/18 01:25:30;;;;;;;5.97;2.05;;;6.60;99.90;;;;;;5118218;28;20094;-29
2023/05/18 01:28:05;;;;;;;9.85;2.33;;;6.50;99.90;;;;;;5117228;28;20050;-28
2023/05/18 01:30:33;;;;;;;7.93;2.42;;;6.60;99.90;;;;;;5118157;28;20393;-28
2023/05/18 01:32:59;;;;;;;8.00;2.00;;;6.60;99.90;;;;;;5117491;28;20383;-29
2023/05/18 01:35:24;;;;;;;8.02;2.13;;;6.60;99.90;;;;;;5117309;28;20107;-29
2023/05/18 01:37:50;;;;;;;9.38;1.85;;;6.70;99.90;;;;;;5117437;28;20094;-29
2023/05/18 01:40:16;;;;;;;9.93;2.03;;;6.70;99.90;;;;;;5117727;28;20474;-29
2023/05/18 01:42:48;;;;;;;5.45;2.10;;;6.70;99.90;;;;;;5117279;28;20056;-29
2023/05/18 01:45:20;;;;;;;7.75;2.17;;;6.80;99.90;;;;;;5117617;28;20054;-28
2023/05/18 01:47:48;;;;;;;9.70;3.03;;;6.80;1.00;;;;;;5117161;28;20096;-28
2023/05/18 01:50:21;;;;;;;6.28;2.70;;;6.80;1.00;;;;;;5116821;28;20410;-29
2023/05/18 01:53:21;;;;;;;4.93;2.67;;;6.80;1.00;;;;;;5133619;27;20051;-29
2023/05/18 01:55:49;;;;;;;6.85;2.50;;;6.80;1.00;;;;;;5064716;28;20055;-29
2023/05/18 01:58:16;;;;;;;5.93;2.22;;;6.70;1.00;;;;;;5133762;27;20058;-30
2023/05/18 02:00:43;;;;;;;10.00;2.50;;;6.70;1.00;;;;;;5116945;28;20043;-29
2023/05/18 02:03:10;;;;;;;11.05;2.20;;;6.80;1.00;;;;;;5116927;28;20127;-29
2023/05/18 02:05:36;;;;;;;9.15;2.47;;;6.80;1.00;;;;;;5116836;28;20051;-29
2023/05/18 02:08:02;;;;;;;10.35;2.67;;;6.80;1.00;;;;;;5117297;28;20043;-29
2023/05/18 02:10:28;;;;;;;8.25;2.30;;;6.80;1.00;;;;;;5115934;28;20044;-29
2023/05/18 02:12:53;;;;;;;7.18;1.98;;;6.80;1.00;;;;;;5117239;28;20175;-29
2023/05/18 02:15:20;;;;;;;7.22;2.22;;;6.90;1.00;;;;;;5116694;28;20123;-30
2023/05/18 02:17:46;;;;;;;8.40;2.28;;;6.90;1.00;;;;;;5117213;28;20047;-29
2023/05/18 02:20:12;;;;;;;9.35;2.53;;;6.90;1.00;;;;;;5115851;28;20044;-29
2023/05/18 02:22:38;;;;;;;9.07;2.33;;;6.90;1.00;;;;;;5116553;27;20088;-29
2023/05/18 02:25:04;;;;;;;8.05;2.50;;;6.90;1.00;;;;;;5116494;28;20043;-29
2023/05/18 02:27:31;;;;;;;5.20;2.80;;;6.90;1.00;;;;;;5116272;28;20440;-29
2023/05/18 02:29:56;;;;;;;8.15;2.45;;;6.90;99.90;;;;;;5116241;28;20047;-29
2023/05/18 02:32:22;;;;;;;9.98;2.25;;;6.90;65.70;;;;;;5116322;28;20043;-29
2023/05/18 02:34:52;;;;;;;6.43;2.80;;;6.90;19.70;;;;;;5116256;28;20047;-29
2023/05/18 02:37:18;;;;;;;10.65;2.85;;;6.80;85.10;;;;;;5116194;28;20088;-29
2023/05/18 02:39:44;;;;;;;7.68;3.08;;;6.80;99.90;;;;;;5116471;28;20062;-29
2023/05/18 02:42:09;;;;;;;9.20;3.10;;;6.80;99.90;;;;;;5115811;28;20055;-29
2023/05/18 02:44:35;;;;;;;6.82;2.80;;;6.80;99.90;;;;;;5116384;28;20165;-29
2023/05/18 02:47:01;;;;;;;6.47;2.28;;;6.80;99.90;;;;;;5115954;28;20051;-29
2023/05/18 02:49:27;;;;;;;9.65;3.30;;;6.70;99.90;;;;;;5114904;28;20391;-29
2023/05/18 02:51:53;;;;;;;5.40;2.75;;;6.80;99.90;;;;;;5114775;28;20042;-28
2023/05/18 02:54:18;;;;;;;11.70;2.97;;;6.70;99.90;;;;;;5115925;28;20087;-29
2023/05/18 02:56:44;;;;;;;6.75;2.42;;;6.70;96.30;;;;;;5114644;28;20039;-29
2023/05/18 02:59:10;;;;;;;11.10;3.72;;;6.70;76.00;;;;;;5116085;27;20104;-29
2023/05/18 03:01:36;;;;;;;8.95;3.05;;;6.80;99.80;;;;;;5116324;28;20494;-29
2023/05/18 03:04:02;;;;;;;13.63;3.42;;;6.80;70.80;;;;;;5115723;28;20069;-29
2023/05/18 03:06:29;;;;;;;8.27;2.67;;;6.80;62.10;;;;;;5131719;27;20047;-31
2023/05/18 03:08:55;;;;;;;9.02;2.40;;;6.70;46.90;;;;;;5114446;27;20048;-29
2023/05/18 03:11:22;;;;;;;11.07;3.55;;;6.80;48.10;;;;;;5114376;28;20040;-28
2023/05/18 03:13:48;;;;;;;10.57;3.53;;;6.80;56.00;;;;;;5115525;28;20045;-28
2023/05/18 03:16:14;;;;;;;11.90;2.83;;;6.80;75.70;;;;;;5115475;28;20044;-30
2023/05/18 03:18:40;;;;;;;10.25;4.05;;;6.80;92.20;;;;;;5116022;28;20039;-29
2023/05/18 03:21:06;;;;;;;20.13;5.20;;;6.80;99.90;;;;;;5115636;28;20044;-29
2023/05/18 03:23:33;;;;;;;8.68;3.00;;;6.90;99.90;;;;;;5115335;28;20048;-30
2023/05/18 03:26:01;;;;;;;12.05;3.67;;;6.90;99.90;;;;;;5114832;28;20610;-28
2023/05/18 03:28:28;;;;;;;11.85;3.53;;;6.80;99.90;;;;;;5114268;28;20055;-29
2023/05/18 03:30:54;;;;;;;10.25;3.53;;;6.80;99.90;;;;;;5115268;28;20040;-29
2023/05/18 03:33:20;;;;;;;11.50;3.10;;;6.80;99.90;;;;;;5114189;28;20051;-29
2023/05/18 03:35:47;;;;;;;11.13;3.08;;;6.80;99.90;;;;;;5096677;28;20437;-29
2023/05/18 03:38:13;;;;;;;9.07;3.05;;;6.80;95.70;;;;;;5114900;28;20587;-28
2023/05/18 03:40:38;;;;;;;12.18;3.30;;;6.90;95.30;;;;;;5115929;28;20064;-29
2023/05/18 03:43:04;;;;;;;10.55;3.85;;;6.90;90.90;;;;;;5114790;28;20406;-29
2023/05/18 03:45:30;;;;;;;8.20;3.30;;;6.90;87.40;;;;;;5114922;27;20440;-28
2023/05/18 03:47:56;;;;;;;12.77;3.75;;;6.90;87.20;;;;;;5114755;28;20443;-29
2023/05/18 03:50:21;;;;;;;9.45;2.95;;;6.90;75.70;;;;;;5115333;28;20537;-29
2023/05/18 03:52:47;;;;;;;11.90;4.22;;;6.90;89.80;;;;;;5114721;28;20044;-29
2023/05/18 03:55:13;;;;;;;11.77;3.83;;;6.90;99.90;;;;;;5114728;28;20398;-28
2023/05/18 03:57:39;;;;;;;10.02;3.90;;;6.90;99.90;;;;;;5114714;28;20048;-29
2023/05/18 04:00:10;;;;;;;11.32;3.53;;;7.00;99.90;;;;;;5115202;28;20047;-29
2023/05/18 04:02:36;;;;;;;8.55;2.70;;;7.00;99.90;;;;;;5115402;28;20058;-29
2023/05/18 04:05:02;;;;;;;11.35;3.05;;;7.10;99.90;;;;;;5131373;27;20189;-29
2023/05/18 04:07:28;;;;;;;8.32;3.28;;;7.10;99.90;;;;;;5114995;28;20047;-28
2023/05/18 04:09:55;;;;;;;10.80;3.45;;;7.20;98.60;;;;;;5113956;28;20047;-28
2023/05/18 04:12:21;;;;;;;5.65;2.95;;;7.30;99.90;;;;;;5114384;28;20087;-28
2023/05/18 04:14:50;;;;;;;11.75;3.38;;;7.30;99.90;;;;;;5114390;28;20042;-29
2023/05/18 04:17:21;;;;;;;8.20;3.35;;;7.40;99.90;;;;;;5114796;28;20039;-28
2023/05/18 04:19:48;;;;;;;8.68;2.50;;;7.40;99.90;;;;;;5114230;28;20494;-29
2023/05/18 04:22:15;;;;;;;11.45;3.25;;;7.50;99.90;;;;;;5114168;28;20046;-29
2023/05/18 04:24:41;;;;;;;12.65;3.05;;;7.60;99.90;;;;;;5114170;28;20127;-29
2023/05/18 04:27:07;;;;;;;10.00;3.65;;;7.80;99.90;;;;;;5113654;28;20372;-28
2023/05/18 04:29:37;;;;;;;6.22;2.95;;;7.80;99.90;;;;;;5114093;28;20047;-28
2023/05/18 04:32:06;;;;;;;12.15;3.90;;;7.90;99.90;;;;;;5113766;28;20095;-29
2023/05/18 04:34:36;;;;;;;6.80;3.45;;;7.90;99.90;;;;;;5113641;28;20071;-29
2023/05/18 04:37:05;;;;;;;15.70;4.70;;;7.90;99.90;;;;;;5130184;27;20054;-28
2023/05/18 04:39:33;;;;;;;10.88;4.15;;;7.90;99.90;;;;;;5129878;27;20051;-29
2023/05/18 04:41:59;;;;;;;5.82;3.47;;;7.90;99.90;;;;;;5113976;28;20054;-29
2023/05/18 04:44:27;;;;;;;8.82;3.90;;;7.90;99.90;;;;;;5129799;28;20051;-29
2023/05/18 04:46:53;;;;;;;11.73;3.72;;;7.90;99.90;;;;;;5095743;28;20128;-29
2023/05/18 04:49:24;;;;;;;9.93;3.45;;;8.00;99.90;;;;;;5129415;28;20043;-28
2023/05/18 04:51:54;;;;;;;11.32;3.30;;;7.90;99.90;;;;;;5114495;28;20136;-29
2023/05/18 04:54:30;;;;;;;7.90;3.65;;;7.90;99.90;;;;;;5113855;28;20040;-28
2023/05/18 04:56:57;;;;;;;7.53;3.30;;;8.00;99.90;;;;;;5113832;28;20467;-30
2023/05/18 04:59:25;;;;;;;9.27;3.63;;;8.10;99.90;;;;;;5095787;28;20043;-29
2023/05/18 05:01:54;;;;;;;11.13;3.25;;;8.10;99.90;;;;;;5112920;28;20043;-29
2023/05/18 05:04:21;;;;;;;10.43;3.20;;;8.10;99.90;;;;;;5114326;28;20485;-28
2023/05/18 05:06:47;;;;;;;21.45;3.88;;;8.20;99.90;;;;;;5113655;28;20039;-29
2023/05/18 05:09:13;;;;;;;5.30;2.90;;;8.30;99.90;;;;;;5114334;28;20044;-29
2023/05/18 05:11:42;;;;;;;6.40;2.72;;;8.30;99.90;;;;;;5113875;28;20077;-29
2023/05/18 05:14:08;;;;;;;11.68;2.90;;;8.40;99.90;;;;;;5113342;28;20383;-29
2023/05/18 05:16:34;;;;;;;9.77;2.53;;;8.60;99.90;;;;;;5113718;28;20047;-29
2023/05/18 05:19:00;;;;;;;11.57;2.63;;;8.70;37.20;;;;;;5129798;28;20052;-29
2023/05/18 05:21:26;;;;;;;8.30;2.22;;;8.70;1.00;;;;;;5129426;28;20047;-28
2023/05/18 05:23:51;;;;;;;5.65;2.20;;;8.90;1.00;;;;;;5114170;28;20048;-29
2023/05/18 05:26:18;;;;;;;6.68;2.38;;;9.00;99.90;;;;;;5112803;28;20038;-29
2023/05/18 05:28:44;;;;;;;8.30;2.47;;;9.10;99.90;;;;;;5113493;28;20446;-28
2023/05/18 05:31:10;;;;;;;10.10;2.13;;;9.20;99.90;;;;;;5129651;28;20044;-29
2023/05/18 05:33:35;;;;;;;9.43;1.80;;;9.30;99.90;;;;;;5114105;28;20056;-29
2023/05/18 05:36:03;;;;;;;8.85;2.30;;;9.50;87.40;;;;;;5111979;28;20051;-29
2023/05/18 05:38:29;;;;;;;7.57;2.13;;;9.70;1.00;;;;;;5113501;28;20063;-29
2023/05/18 05:40:55;;;;;;;11.13;2.78;;;9.90;1.00;;;;;;5112434;28;20051;-30
2023/05/18 05:43:21;;;;;;;10.70;2.47;;;10.00;99.90;;;;;;5112107;28;20069;-29
2023/05/18 05:45:46;;;;;;;7.05;1.90;;;10.20;99.90;;;;;;5114853;28;20086;-30
2023/05/18 05:48:12;;;;;;;6.43;2.40;;;10.30;99.90;;;;;;5099098;28;20040;-28
2023/05/18 05:50:38;;;;;;;9.98;2.30;;;10.40;93.70;;;;;;5133201;27;20039;-28
2023/05/18 05:53:03;;;;;;;6.78;1.88;;;10.50;71.00;;;;;;5115857;28;20125;-29
2023/05/18 05:55:29;;;;;;;11.90;2.33;;;10.60;1.00;;;;;;5117558;28;20444;-29
2023/05/18 05:57:55;;;;;;;4.40;1.58;;;10.70;1.00;;;;;;5116868;28;20043;-28
2023/05/18 06:00:22;;;;;;;6.65;2.17;;;10.60;99.90;;;;;;5115994;28;20081;-29
2023/05/18 06:02:48;;;;;;;6.03;1.98;;;10.70;99.90;;;;;;5116943;28;20096;-28
2023/05/18 06:05:13;;;;;;;9.88;2.10;;;10.70;99.90;;;;;;5115552;28;20122;-29
2023/05/18 06:07:39;;;;;;;9.10;2.78;;;10.70;99.90;;;;;;5116694;28;20555;-29
2023/05/18 06:10:05;;;;;;;9.80;2.42;;;10.80;99.90;;;;;;5115742;28;20122;-29
2023/05/18 06:12:31;;;;;;;8.48;2.53;;;10.90;99.90;;;;;;5116011;28;20061;-29
2023/05/18 06:14:57;;;;;;;8.13;2.35;;;11.00;99.90;;;;;;5116586;28;20043;-29
2023/05/18 06:17:27;;;;;;;8.48;2.00;;;11.10;99.90;;;;;;5116553;28;20046;-29
2023/05/18 06:19:53;;;;;;;9.90;1.80;;;11.20;1.00;;;;;;5115329;28;20043;-29
2023/05/18 06:22:19;;;;;;;8.05;1.80;;;11.30;1.00;;;;;;5116917;28;20039;-31
2023/05/18 06:24:45;;;;;;;7.38;2.05;;;11.50;1.00;;;;;;5116341;28;20394;-29
2023/05/18 06:27:11;;;;;;;6.30;2.03;;;11.80;99.90;;;;;;5116163;28;20043;-29
2023/05/18 06:29:37;;;;;;;9.25;1.42;;;12.20;99.90;;;;;;5116288;28;20043;-29
2023/05/18 06:32:03;;;;;;;5.30;1.70;;;12.40;1.00;;;;;;5132193;27;20139;-29
2023/05/18 06:34:29;;;;;;;12.02;2.15;;;12.60;1.00;;;;;;5116211;28;20083;-29
2023/05/18 06:36:55;;;;;;;8.57;1.88;;;12.70;99.90;;;;;;5116402;28;20090;-29
2023/05/18 06:39:20;;;;;;;11.38;1.80;;;12.90;99.90;;;;;;5116150;28;20061;-29
2023/05/18 06:41:46;;;;;;;12.35;3.85;;;13.20;99.90;;;;;;5132005;27;20108;-29
2023/05/18 06:44:12;;;;;;;8.35;1.70;;;13.40;99.90;;;;;;5116002;28;20394;-29
2023/05/18 06:46:38;;;;;;;8.32;2.90;;;13.40;99.90;;;;;;5115917;28;20047;-29
2023/05/18 06:49:03;;;;;;;5.32;1.52;;;13.30;56.50;;;;;;5116539;28;20043;-29
2023/05/18 06:51:30;;;;;;;5.90;1.40;;;13.40;1.00;;;;;;5115882;28;20051;-30
2023/05/18 06:53:56;;;;;;;7.45;1.60;;;13.60;1.00;;;;;;5114650;28;20043;-29
2023/05/18 06:56:22;;;;;;;9.23;1.70;;;13.60;1.00;;;;;;5115185;28;20490;-29
2023/05/18 06:58:48;;;;;;;8.15;2.55;;;13.60;1.00;;;;;;5132682;27;20051;-29
2023/05/18 07:01:14;;;;;;;12.63;3.30;;;13.50;99.90;;;;;;5115712;27;20047;-29
2023/05/18 07:03:40;;;;;;;6.05;1.60;;;13.10;99.90;;;;;;5115656;28;20082;-29
2023/05/18 07:06:06;;;;;;;9.25;1.80;;;12.80;99.90;;;;;;5114675;28;20140;-28
2023/05/18 07:08:32;;;;;;;10.50;2.22;;;12.10;99.90;;;;;;5116093;28;20054;-30
2023/05/18 07:10:58;;;;;;;8.02;1.60;;;12.30;1.00;;;;;;5115585;28;20043;-29
2023/05/18 07:13:24;;;;;;;7.40;1.80;;;12.50;1.00;;;;;;5115436;28;20047;-28
2023/05/18 07:15:50;;;;;;;7.30;2.42;;;12.80;1.00;;;;;;5115935;28;20562;-30
2023/05/18 07:18:16;;;;;;;7.00;2.25;;;13.00;99.90;;;;;;5115330;28;20087;-29
2023/05/18 07:20:42;;;;;;;5.35;1.88;;;13.00;99.90;;;;;;5116085;28;20039;-29
2023/05/18 07:23:08;;;;;;;4.45;1.58;;;13.20;99.90;;;;;;5131401;27;20470;-30
2023/05/18 07:25:33;;;;;;;9.05;2.08;;;13.50;99.90;;;;;;5115460;28;20047;-29
2023/05/18 07:27:59;;;;;;;10.70;2.17;;;13.50;99.90;;;;;;5131644;27;20379;-29
2023/05/18 07:30:25;;;;;;;10.00;2.15;;;13.60;99.90;;;;;;5113927;28;20047;-30
2023/05/18 07:32:51;;;;;;;7.85;1.75;;;13.70;99.90;;;;;;5115870;28;20532;-29
2023/05/18 07:35:20;;;;;;;7.85;1.70;;;13.90;99.90;;;;;;5115844;28;20050;-29
2023/05/18 07:37:46;;;;;;;10.15;2.13;;;14.20;72.30;;;;;;5115008;28;20047;-29
2023/05/18 07:40:12;;;;;;;5.90;1.52;;;14.60;19.60;;;;;;5115478;28;20056;-29
2023/05/18 07:42:39;;;;;;;6.47;1.70;;;14.70;1.00;;;;;;5114053;28;20082;-29
2023/05/18 07:45:06;;;;;;;5.20;1.50;;;14.90;1.00;;;;;;5097721;28;20428;-29
2023/05/18 07:47:32;;;;;;;8.50;2.13;;;14.90;1.00;;;;;;5113592;28;20047;-29
2023/05/18 07:49:58;;;;;;;8.85;2.20;;;14.90;1.00;;;;;;5114739;28;20450;-32
2023/05/18 07:52:23;;;;;;;7.90;1.75;;;15.00;1.00;;;;;;5114699;28;20047;-29
2023/05/18 07:54:49;;;;;;;7.35;1.90;;;14.80;1.00;;;;;;5114715;28;20109;-29
2023/05/18 07:57:15;;;;;;;9.23;2.08;;;14.80;1.00;;;;;;5097488;28;20458;-29
2023/05/18 07:59:41;;;;;;;6.40;2.00;;;15.00;1.00;;;;;;5114602;28;20036;-29
2023/05/18 08:02:06;;;;;;;8.63;2.90;;;14.70;1.00;;;;;;5114542;28;20545;-29
2023/05/18 08:04:32;;;;;;;6.97;1.55;;;14.90;1.00;;;;;;5114477;28;20044;-29
2023/05/18 08:06:59;;;;;;;7.10;1.52;;;15.10;1.00;;;;;;5096120;28;20078;-29
2023/05/18 08:09:28;;;;;;;5.45;1.38;;;15.60;1.00;;;;;;5113709;28;20048;-30
2023/05/18 08:11:54;;;;;;;5.47;1.40;;;16.30;99.90;;;;;;5114103;28;20494;-29
2023/05/18 08:14:20;;;;;;;8.00;2.05;;;16.40;99.90;;;;;;5096217;28;20048;-29
2023/05/18 08:16:46;;;;;;;5.72;1.70;;;16.60;99.90;;;;;;5114371;28;20055;-29
2023/05/18 08:19:11;;;;;;;5.88;1.50;;;16.50;99.90;;;;;;5114290;28;20403;-30
2023/05/18 08:21:37;;;;;;;5.30;1.95;;;16.70;99.90;;;;;;5130144;27;20101;-28
2023/05/18 08:24:03;;;;;;;6.00;1.10;;;17.00;99.90;;;;;;5096295;28;20051;-29
2023/05/18 08:26:29;;;;;;;7.15;1.50;;;17.30;99.90;;;;;;5114053;28;20200;-30
2023/05/18 08:28:55;;;;;;;6.35;1.73;;;17.40;99.90;;;;;;5114181;28;20505;-29
2023/05/18 08:31:21;;;;;;;9.15;1.88;;;17.30;99.90;;;;;;5096084;28;20047;-29
2023/05/18 08:33:47;;;;;;;8.18;2.15;;;17.30;99.90;;;;;;5113100;28;20051;-29
2023/05/18 08:36:13;;;;;;;5.97;1.60;;;17.40;99.90;;;;;;5114439;28;20040;-28
2023/05/18 08:38:41;;;;;;;12.07;1.75;;;17.60;99.90;;;;;;5113750;28;20101;-28
2023/05/18 08:41:26;;;;;;;10.20;2.30;;;17.80;99.90;;;;;;5113973;28;20540;-29
2023/05/18 08:44:10;;;;;;;5.80;1.63;;;17.30;99.90;;;;;;5130760;28;20050;-29
2023/05/18 08:46:41;;;;;;;9.43;1.80;;;16.80;99.90;;;;;;5114535;28;20050;-29
2023/05/18 08:49:09;;;;;;;4.68;1.38;;;16.50;99.90;;;;;;5096881;28;20056;-29
2023/05/18 08:51:36;;;;;;;7.88;1.60;;;17.10;99.90;;;;;;5113876;28;20050;-29
2023/05/18 08:54:04;;;;;;;8.57;1.70;;;17.20;99.90;;;;;;5113933;28;20089;-29
2023/05/18 08:56:34;;;;;;;6.38;1.67;;;17.10;99.90;;;;;;5113833;28;20482;-28
2023/05/18 08:59:07;;;;;;;6.13;1.92;;;16.80;99.90;;;;;;5113831;28;20044;-29
2023/05/18 09:01:33;;;;;;;8.70;2.50;;;16.90;99.90;;;;;;5113928;28;20055;-28
2023/05/18 09:03:59;;;;;;;10.60;3.42;;;16.50;99.90;;;;;;5113733;28;20213;-30
2023/05/18 09:06:27;;;;;;;8.23;1.73;;;16.30;99.90;;;;;;5113940;28;20478;-29
2023/05/18 09:08:54;;;;;;;8.68;1.77;;;16.50;99.90;;;;;;5114308;28;20043;-28
2023/05/18 09:11:21;;;;;;;8.75;1.70;;;16.80;99.90;;;;;;5095573;28;20047;-29
2023/05/18 09:13:50;;;;;;;7.47;1.60;;;16.90;99.90;;;;;;5113804;28;20133;-29
2023/05/18 09:16:17;;;;;;;5.85;1.67;;;16.80;99.90;;;;;;5112782;28;20521;-29
2023/05/18 09:18:43;;;;;;;7.05;2.38;;;16.50;99.90;;;;;;5113725;28;20048;-28
2023/05/18 09:21:10;;;;;;;6.15;1.48;;;16.00;99.90;;;;;;5115714;28;20043;-30
2023/05/18 09:23:38;;;;;;;10.73;2.08;;;15.60;99.90;;;;;;5117283;28;20062;-29
2023/05/18 09:26:04;;;;;;;6.30;2.20;;;15.30;99.90;;;;;;5134014;27;20394;-29
2023/05/18 09:28:35;;;;;;;8.90;2.38;;;15.60;99.90;;;;;;5117419;28;20048;-29
2023/05/18 09:31:15;;;;;;;9.07;1.88;;;16.00;99.90;;;;;;5133721;27;20055;-30
2023/05/18 09:33:43;;;;;;;9.18;2.22;;;16.20;99.90;;;;;;5116427;28;20108;-29
2023/05/18 09:36:10;;;;;;;8.43;2.13;;;16.00;99.90;;;;;;5117387;28;20043;-29
2023/05/18 09:38:44;;;;;;;5.53;1.40;;;15.90;99.90;;;;;;5117200;28;20105;-29
2023/05/18 09:41:16;;;;;;;8.85;2.28;;;15.70;99.90;;;;;;5099432;28;20058;-28
2023/05/18 09:43:47;;;;;;;9.73;2.25;;;15.80;99.90;;;;;;5099134;28;20043;-29
2023/05/18 09:46:13;;;;;;;7.22;1.88;;;16.20;99.90;;;;;;5117792;28;20044;-30
2023/05/18 09:48:46;;;;;;;6.95;1.60;;;16.80;99.90;;;;;;5117787;28;20049;-29
2023/05/18 09:51:15;;;;;;;9.68;2.35;;;17.20;99.90;;;;;;5116004;28;20053;-28
2023/05/18 09:53:42;;;;;;;7.20;2.03;;;17.40;99.90;;;;;;5117648;28;20083;-30
2023/05/18 09:56:11;;;;;;;7.07;2.08;;;17.40;99.90;;;;;;5134064;27;20133;-29
2023/05/18 09:58:38;;;;;;;7.40;1.42;;;17.30;99.90;;;;;;5115841;28;20083;-29
2023/05/18 10:01:04;;;;;;;9.50;2.08;;;17.30;99.90;;;;;;5116949;28;20055;-28
2023/05/18 10:03:37;;;;;;;5.55;1.50;;;17.00;99.90;;;;;;5117026;28;20040;-29
2023/05/18 10:06:05;;;;;;;9.55;1.70;;;17.00;99.90;;;;;;5116963;28;20050;-29
2023/05/18 10:08:31;;;;;;;9.25;2.38;;;17.60;99.90;;;;;;5115588;28;20039;-28
2023/05/18 10:10:56;;;;;;;5.80;1.65;;;17.70;99.90;;;;;;5117081;28;20051;-29
2023/05/18 10:13:25;;;;;;;6.78;1.63;;;18.00;99.90;;;;;;5115560;28;20402;-29
2023/05/18 10:15:55;;;;;;;6.35;1.67;;;17.90;99.90;;;;;;5115982;28;20123;-28
2023/05/18 10:18:26;;;;;;;6.38;1.88;;;18.00;99.90;;;;;;5117146;28;20039;-29
2023/05/18 10:20:54;;;;;;;6.60;1.95;;;17.70;99.90;;;;;;5117400;28;20048;-29
2023/05/18 10:23:20;;;;;;;7.55;2.20;;;17.70;99.90;;;;;;5116504;28;20094;-28
2023/05/18 10:25:48;;;;;;;8.55;1.95;;;17.20;99.90;;;;;;5115277;28;20047;-30
2023/05/18 10:28:40;;;;;;;6.97;2.35;;;17.00;99.90;;;;;;5116269;28;20036;-29
2023/05/18 10:31:06;;;;;;;9.50;1.92;;;17.00;99.90;;;;;;5116136;28;20097;-28
2023/05/18 10:33:34;;;;;;;6.15;1.95;;;17.10;99.90;;;;;;5116803;28;20051;-29
2023/05/18 10:36:02;;;;;;;6.22;1.50;;;17.30;99.90;;;;;;5115918;28;20450;-29
2023/05/18 10:38:30;;;;;;;6.60;1.83;;;17.90;99.90;;;;;;5116777;28;20373;-30
2023/05/18 10:40:59;;;;;;;8.65;2.00;;;18.30;99.90;;;;;;5116258;28;20104;-30
2023/05/18 10:43:26;;;;;;;6.18;2.00;;;18.50;99.90;;;;;;5114968;28;20127;-28
2023/05/18 10:45:54;;;;;;;6.78;1.63;;;18.60;99.90;;;;;;5116434;27;20139;-29
2023/05/18 10:48:21;;;;;;;5.38;1.60;;;18.60;99.90;;;;;;5116086;28;20052;-29
2023/05/18 10:50:49;;;;;;;7.90;1.85;;;18.90;99.90;;;;;;5132286;27;20051;-29
2023/05/18 10:53:20;;;;;;;5.38;1.63;;;19.30;99.90;;;;;;5115025;28;20126;-29
2023/05/18 10:55:47;;;;;;;8.88;2.00;;;19.50;99.90;;;;;;5115021;28;20063;-29
2023/05/18 10:58:15;;;;;;;7.75;2.03;;;19.10;99.90;;;;;;5115980;28;20088;-28
2023/05/18 11:00:51;;;;;;;6.70;2.10;;;18.60;99.90;;;;;;5114920;28;20050;-29
2023/05/18 11:03:18;;;;;;;7.43;1.88;;;18.00;99.90;;;;;;5116456;28;20040;-29
2023/05/18 11:05:50;;;;;;;5.93;1.70;;;17.70;99.90;;;;;;5115768;28;20118;-29
2023/05/18 11:08:27;;;;;;;7.20;1.90;;;17.50;99.90;;;;;;5115750;28;20052;-30
2023/05/18 11:11:02;;;;;;;9.45;2.17;;;17.60;99.90;;;;;;5116004;28;20498;-28
2023/05/18 11:13:30;;;;;;;7.65;1.85;;;17.80;99.90;;;;;;5114622;28;20398;-28
2023/05/18 11:15:57;;;;;;;7.43;1.80;;;17.50;99.90;;;;;;5115522;28;20051;-28
2023/05/18 11:18:41;;;;;;;8.30;1.77;;;17.20;99.90;;;;;;5114374;28;20077;-28
2023/05/18 11:21:34;;;;;;;4.93;1.65;;;17.10;99.90;;;;;;5115496;28;20483;-28
2023/05/18 11:24:25;;;;;;;9.07;1.77;;;17.00;99.90;;;;;;5131295;27;20498;-28
2023/05/18 11:26:53;;;;;;;7.15;1.77;;;16.70;99.90;;;;;;5115148;28;20134;-29
2023/05/18 11:29:31;;;;;;;7.78;1.60;;;16.90;99.90;;;;;;5114259;28;20098;-28
2023/05/18 11:31:57;;;;;;;7.32;1.90;;;17.30;99.90;;;;;;5104823;28;20479;-30
2023/05/18 11:34:43;;;;;;;7.43;1.48;;;17.60;99.90;;;;;;5115373;28;20360;-28
2023/05/18 11:37:11;;;;;;;5.88;1.65;;;17.60;99.90;;;;;;5114159;28;20051;-29
2023/05/18 11:39:37;;;;;;;5.95;1.63;;;17.20;99.90;;;;;;5115254;28;20114;-28
2023/05/18 11:42:09;;;;;;;6.60;1.60;;;17.10;99.90;;;;;;5112671;27;20481;-29
2023/05/18 11:44:35;;;;;;;8.10;1.77;;;16.80;99.90;;;;;;5113983;28;20130;-29
2023/05/18 11:47:08;;;;;;;9.27;1.85;;;16.80;99.90;;;;;;5114871;28;20047;-28
2023/05/18 11:49:45;;;;;;;6.93;2.00;;;16.90;99.90;;;;;;5114003;28;20048;-28
2023/05/18 11:52:11;;;;;;;8.68;4.03;;;17.20;99.90;;;;;;5104907;28;20048;-29
2023/05/18 11:54:48;;;;;;;7.95;1.75;;;17.30;99.90;;;;;;5094392;28;20093;-28
2023/05/18 11:57:16;;;;;;;4.97;1.77;;;17.70;99.90;;;;;;5076316;28;20109;-28
2023/05/18 11:59:44;;;;;;;6.50;1.92;;;17.50;99.90;;;;;;5093404;28;20048;-29
2023/05/18 12:02:16;;;;;;;8.75;1.80;;;17.30;99.90;;;;;;5097993;28;20055;-29
2023/05/18 12:04:51;;;;;;;6.78;2.20;;;17.40;99.90;;;;;;5114618;28;20047;-28
2023/05/18 12:07:18;;;;;;;8.70;1.95;;;16.90;99.90;;;;;;5114557;28;20036;-28
2023/05/18 12:09:45;;;;;;;8.55;1.60;;;16.70;99.90;;;;;;5115089;28;20044;-29
2023/05/18 12:12:15;;;;;;;5.45;1.60;;;16.60;99.90;;;;;;5113462;28;20090;-28
2023/05/18 12:14:42;;;;;;;6.50;1.77;;;16.80;99.90;;;;;;5097785;28;20044;-29
2023/05/18 12:17:09;;;;;;;8.55;2.00;;;16.70;99.90;;;;;;5094073;28;20040;-28
2023/05/18 12:19:45;;;;;;;4.38;1.33;;;17.10;99.90;;;;;;5094322;28;20081;-29
2023/05/18 12:22:12;;;;;;;10.30;2.00;;;17.60;99.90;;;;;;5094010;28;20036;-28
2023/05/18 12:24:39;;;;;;;11.93;1.83;;;17.40;99.90;;;;;;5104613;28;20039;-28
2023/05/18 12:27:07;;;;;;;9.20;2.05;;;17.10;99.90;;;;;;5114124;28;20032;-28
2023/05/18 12:29:37;;;;;;;7.63;2.08;;;17.20;99.90;;;;;;5112996;28;20117;-29
2023/05/18 12:32:11;;;;;;;9.02;2.17;;;17.20;99.90;;;;;;5114787;28;20047;-28
2023/05/18 12:34:38;;;;;;;7.35;1.70;;;17.30;99.90;;;;;;5108360;28;20048;-28
2023/05/18 12:37:06;;;;;;;6.53;1.77;;;17.10;99.90;;;;;;5093817;28;20040;-28
2023/05/18 12:39:32;;;;;;;9.65;2.15;;;17.40;99.90;;;;;;5123701;27;20060;-29
2023/05/18 12:42:13;;;;;;;8.93;4.88;;;17.80;99.90;;;;;;5101487;28;20109;-29
2023/05/18 12:44:42;;;;;;;9.27;2.55;;;17.90;99.90;;;;;;5106452;28;20051;-28
2023/05/18 12:47:10;;;;;;;6.72;1.83;;;18.10;99.90;;;;;;5114003;28;20036;-29
2023/05/18 12:49:37;;;;;;;8.52;1.88;;;18.70;99.90;;;;;;5113999;28;20515;-30
2023/05/18 12:52:14;;;;;;;10.68;2.78;;;18.60;99.90;;;;;;5112860;28;20066;-28
2023/05/18 12:54:59;;;;;;;6.50;2.00;;;18.50;99.90;;;;;;5104143;28;20124;-28